Time;durP1;ratioP1;P1;durP2;ratioP2;P2;SDS_P1;SDS_P2;PMS_P1;PMS_P2;Temp;Humidity;BMP_temperature;BMP_pressure;BME280_temperature;BME280_humidity;BME280_pressure;Samples;Min_cycle;Max_cycle;Signal;HPM_P1;HPM_P2
2022/08/01 00:01:48;;;;;;;10.60;6.72;;;19.80;99.90;;;;;;5040562;28;20040;-84
2022/08/01 00:04:13;;;;;;;12.60;7.72;;;19.70;99.90;;;;;;5050593;28;20025;-85
2022/08/01 00:06:39;;;;;;;11.20;6.88;;;19.70;99.90;;;;;;5048413;28;20029;-84
2022/08/01 00:09:04;;;;;;;12.60;7.30;;;19.60;99.90;;;;;;5048753;28;20529;-85
2022/08/01 00:11:30;;;;;;;8.95;6.45;;;19.60;99.90;;;;;;5050416;28;20078;-84
2022/08/01 00:13:55;;;;;;;9.50;7.25;;;19.50;99.90;;;;;;5051201;28;20028;-84
2022/08/01 00:16:22;;;;;;;10.35;7.28;;;19.50;99.90;;;;;;5050353;28;20029;-85
2022/08/01 00:18:49;;;;;;;11.93;7.10;;;19.50;99.90;;;;;;5050183;28;20099;-84
2022/08/01 00:21:15;;;;;;;11.57;6.45;;;19.50;99.90;;;;;;5046337;28;20116;-86
2022/08/01 00:23:41;;;;;;;12.80;8.13;;;19.40;99.90;;;;;;5048265;28;20026;-85
2022/08/01 00:26:06;;;;;;;12.38;7.45;;;19.40;99.90;;;;;;5048680;28;20523;-85
2022/08/01 00:28:32;;;;;;;9.30;6.88;;;19.40;99.90;;;;;;5042344;28;20029;-84
2022/08/01 00:30:57;;;;;;;12.07;7.22;;;19.40;99.90;;;;;;5050684;28;20545;-85
2022/08/01 00:33:23;;;;;;;10.30;7.28;;;19.40;99.90;;;;;;5050509;28;20037;-85
2022/08/01 00:35:48;;;;;;;13.00;7.93;;;19.40;99.90;;;;;;5047370;28;20021;-85
2022/08/01 00:38:14;;;;;;;11.38;8.13;;;19.30;99.90;;;;;;5049167;28;20055;-85
2022/08/01 00:40:39;;;;;;;10.65;7.55;;;19.40;99.90;;;;;;5050731;28;20120;-85
2022/08/01 00:43:05;;;;;;;12.85;7.22;;;19.30;99.90;;;;;;5046945;28;20032;-85
2022/08/01 00:45:30;;;;;;;14.68;8.65;;;19.30;99.90;;;;;;5048998;28;20508;-86
2022/08/01 00:47:56;;;;;;;14.38;8.13;;;19.30;99.90;;;;;;5044223;28;20065;-86
2022/08/01 00:50:22;;;;;;;14.25;8.13;;;19.30;99.90;;;;;;5051799;28;20037;-86
2022/08/01 00:52:48;;;;;;;12.00;8.02;;;19.30;99.90;;;;;;5051331;28;20389;-86
2022/08/01 00:55:15;;;;;;;10.75;7.90;;;19.30;99.90;;;;;;5047244;28;20021;-87
2022/08/01 00:57:40;;;;;;;18.27;8.85;;;19.20;99.90;;;;;;5050014;28;20025;-86
2022/08/01 01:00:07;;;;;;;12.90;8.70;;;19.20;99.90;;;;;;5051230;28;20060;-86
2022/08/01 01:02:33;;;;;;;14.43;8.85;;;19.20;99.90;;;;;;5045315;28;20059;-86
2022/08/01 01:04:59;;;;;;;12.48;8.20;;;19.20;99.90;;;;;;5045900;28;20024;-86
2022/08/01 01:07:30;;;;;;;14.80;9.05;;;19.20;99.90;;;;;;5049863;28;20025;-86
2022/08/01 01:10:19;;;;;;;14.88;8.25;;;19.20;99.90;;;;;;5049865;28;20033;-86
2022/08/01 01:13:02;;;;;;;18.98;9.02;;;19.20;99.90;;;;;;5041774;28;20090;-86
2022/08/01 01:15:40;;;;;;;14.27;8.85;;;19.20;99.90;;;;;;5048182;28;20025;-86
2022/08/01 01:18:24;;;;;;;13.85;8.30;;;19.10;99.90;;;;;;5048155;28;20116;-85
2022/08/01 01:21:11;;;;;;;14.43;7.85;;;19.20;99.90;;;;;;5040386;28;20116;-85
2022/08/01 01:24:05;;;;;;;12.30;7.82;;;19.10;99.90;;;;;;5064276;28;20040;-86
2022/08/01 01:27:05;;;;;;;13.70;7.95;;;19.10;99.90;;;;;;5050439;28;20047;-86
2022/08/01 01:29:41;;;;;;;14.73;8.90;;;19.10;99.90;;;;;;5008707;28;20050;-86
2022/08/01 01:32:25;;;;;;;14.95;8.98;;;19.20;99.90;;;;;;5046568;28;20021;-86
2022/08/01 01:34:53;;;;;;;13.48;8.25;;;19.10;99.90;;;;;;5046427;28;20017;-86
2022/08/01 01:37:22;;;;;;;12.77;8.50;;;19.10;99.90;;;;;;5044384;28;20066;-86
2022/08/01 01:39:52;;;;;;;13.80;8.88;;;19.10;99.90;;;;;;5048917;28;20492;-85
2022/08/01 01:42:19;;;;;;;12.05;9.18;;;19.10;99.90;;;;;;5049611;28;20017;-86
2022/08/01 01:44:49;;;;;;;14.43;9.07;;;19.10;99.90;;;;;;5047090;28;20064;-85
2022/08/01 01:47:16;;;;;;;15.98;9.20;;;19.10;99.90;;;;;;5042826;28;20049;-86
2022/08/01 01:49:45;;;;;;;13.45;8.80;;;19.10;99.90;;;;;;5046953;28;20044;-86
2022/08/01 01:52:13;;;;;;;16.77;8.55;;;19.10;99.90;;;;;;5044997;28;20029;-86
2022/08/01 01:54:46;;;;;;;13.65;8.48;;;19.10;99.90;;;;;;5045242;28;20064;-85
2022/08/01 01:57:14;;;;;;;17.30;8.70;;;19.10;99.90;;;;;;5045916;28;20428;-86
2022/08/01 01:59:41;;;;;;;14.48;8.57;;;19.10;99.90;;;;;;5043929;28;20036;-87
2022/08/01 02:02:08;;;;;;;14.85;8.65;;;19.10;99.90;;;;;;5048231;28;20050;-86
2022/08/01 02:04:43;;;;;;;14.75;9.13;;;19.00;99.90;;;;;;5045256;28;20480;-86
2022/08/01 02:07:12;;;;;;;17.60;9.38;;;19.00;99.90;;;;;;5048521;28;20112;-87
2022/08/01 02:09:41;;;;;;;14.55;8.63;;;19.00;99.90;;;;;;5043458;28;20029;-87
2022/08/01 02:12:09;;;;;;;17.45;8.88;;;19.00;99.90;;;;;;5048260;28;20442;-86
2022/08/01 02:14:36;;;;;;;15.95;9.15;;;19.00;99.90;;;;;;5048139;28;20132;-86
2022/08/01 02:17:03;;;;;;;14.75;8.43;;;19.00;99.90;;;;;;5047818;28;20028;-86
2022/08/01 02:19:30;;;;;;;14.95;9.85;;;19.00;99.90;;;;;;5044648;28;20090;-86
2022/08/01 02:22:00;;;;;;;15.40;9.07;;;19.00;99.90;;;;;;5048370;28;20028;-86
2022/08/01 02:24:37;;;;;;;14.93;9.05;;;19.00;99.90;;;;;;5046497;28;20408;-86
2022/08/01 02:27:15;;;;;;;17.05;8.80;;;19.00;99.90;;;;;;5044141;28;20099;-87
2022/08/01 02:30:05;;;;;;;17.45;10.07;;;19.00;99.90;;;;;;5046050;28;20033;-86
2022/08/01 02:32:36;;;;;;;16.35;9.02;;;18.90;99.90;;;;;;5048233;28;20017;-86
2022/08/01 02:35:03;;;;;;;15.25;8.75;;;18.90;99.90;;;;;;5047764;28;20033;-86
2022/08/01 02:37:33;;;;;;;17.67;10.07;;;18.80;99.90;;;;;;5048419;28;20027;-86
2022/08/01 02:40:00;;;;;;;18.95;9.57;;;18.80;99.90;;;;;;5044274;28;20033;-86
2022/08/01 02:42:29;;;;;;;16.77;9.55;;;18.70;99.90;;;;;;5047284;28;20108;-86
2022/08/01 02:44:57;;;;;;;17.08;10.23;;;18.70;99.90;;;;;;5041404;28;20033;-86
2022/08/01 02:47:24;;;;;;;20.08;10.02;;;18.60;99.90;;;;;;5046008;28;20093;-86
2022/08/01 02:49:52;;;;;;;17.15;9.40;;;18.50;99.90;;;;;;5047122;28;20108;-86
2022/08/01 02:52:20;;;;;;;17.05;10.00;;;18.50;99.90;;;;;;5044727;28;20500;-87
2022/08/01 02:54:49;;;;;;;17.13;10.50;;;18.40;99.90;;;;;;5043489;28;20363;-87
2022/08/01 02:57:16;;;;;;;17.52;10.38;;;18.40;99.90;;;;;;5042754;28;20033;-87
2022/08/01 02:59:43;;;;;;;16.52;9.82;;;18.30;99.90;;;;;;5047033;28;20091;-87
2022/08/01 03:02:10;;;;;;;19.67;10.55;;;18.30;99.90;;;;;;5047204;28;20100;-86
2022/08/01 03:04:39;;;;;;;14.18;9.45;;;18.30;99.90;;;;;;5043541;28;20096;-85
2022/08/01 03:07:07;;;;;;;23.25;11.05;;;18.20;99.90;;;;;;5044410;28;20117;-87
2022/08/01 03:09:38;;;;;;;18.35;10.82;;;18.20;99.90;;;;;;5046341;28;20053;-86
2022/08/01 03:12:09;;;;;;;16.67;10.82;;;18.20;99.90;;;;;;5043040;28;20587;-87
2022/08/01 03:14:37;;;;;;;15.20;9.98;;;18.20;99.90;;;;;;5048560;28;20021;-86
2022/08/01 03:17:05;;;;;;;16.23;10.68;;;18.20;99.90;;;;;;5046711;28;20037;-86
2022/08/01 03:19:32;;;;;;;18.63;11.35;;;18.20;99.90;;;;;;5046355;28;20044;-86
2022/08/01 03:22:03;;;;;;;18.80;11.13;;;18.20;99.90;;;;;;5047560;28;20079;-85
2022/08/01 03:24:30;;;;;;;17.77;10.10;;;18.10;99.90;;;;;;5044214;28;20053;-86
2022/08/01 03:26:57;;;;;;;17.38;10.60;;;18.10;99.90;;;;;;5043136;28;20032;-86
2022/08/01 03:29:25;;;;;;;22.55;10.35;;;18.00;99.90;;;;;;5056562;28;20407;-85
2022/08/01 03:31:51;;;;;;;19.45;10.68;;;18.00;99.90;;;;;;5043256;28;20021;-86
2022/08/01 03:34:17;;;;;;;16.60;10.88;;;18.00;99.90;;;;;;5044458;28;20511;-86
2022/08/01 03:36:51;;;;;;;17.98;10.93;;;18.00;99.90;;;;;;5043110;28;20033;-86
2022/08/01 03:39:19;;;;;;;16.88;10.65;;;18.00;99.90;;;;;;5046387;28;20033;-86
2022/08/01 03:41:52;;;;;;;19.88;10.82;;;17.90;99.90;;;;;;5049986;28;20448;-86
2022/08/01 03:44:23;;;;;;;19.52;10.23;;;17.90;99.90;;;;;;5042896;28;20065;-86
2022/08/01 03:46:59;;;;;;;19.23;10.73;;;17.90;99.90;;;;;;5048926;28;20485;-86
2022/08/01 03:49:32;;;;;;;19.80;9.68;;;17.90;99.90;;;;;;5048418;28;20451;-86
2022/08/01 03:52:01;;;;;;;22.45;10.93;;;17.80;99.90;;;;;;5048658;28;20370;-86
2022/08/01 03:54:33;;;;;;;22.27;10.25;;;17.70;99.90;;;;;;5044546;28;20025;-86
2022/08/01 03:56:59;;;;;;;;;;;17.80;99.90;;;;;;5051278;28;20065;-86
2022/08/01 03:59:26;;;;;;;18.33;9.27;;;17.70;99.90;;;;;;5050874;28;19966;-86
2022/08/01 04:01:52;;;;;;;17.88;10.40;;;17.70;99.90;;;;;;5050583;28;20028;-86
2022/08/01 04:04:18;;;;;;;21.52;9.88;;;17.70;99.90;;;;;;5050799;28;20112;-86
2022/08/01 04:06:44;;;;;;;20.95;10.45;;;17.80;99.90;;;;;;5048485;28;20074;-86
2022/08/01 04:09:11;;;;;;;21.70;10.85;;;17.70;99.90;;;;;;5051447;28;20050;-86
2022/08/01 04:11:37;;;;;;;20.02;10.15;;;17.80;99.90;;;;;;5052052;28;20039;-85
2022/08/01 04:14:03;;;;;;;21.02;9.98;;;17.80;99.90;;;;;;5048320;28;20163;-85
2022/08/01 04:16:29;;;;;;;19.00;11.27;;;17.80;99.90;;;;;;5049902;28;20073;-85
2022/08/01 04:18:55;;;;;;;21.58;10.18;;;17.80;99.90;;;;;;5051368;28;20443;-85
2022/08/01 04:21:23;;;;;;;22.48;11.98;;;17.80;99.90;;;;;;5046769;28;20607;-86
2022/08/01 04:23:51;;;;;;;23.20;11.00;;;17.80;99.90;;;;;;5047063;28;20065;-85
2022/08/01 04:26:18;;;;;;;20.65;9.73;;;17.80;99.90;;;;;;5050753;28;20028;-86
2022/08/01 04:28:45;;;;;;;20.08;10.18;;;17.80;99.90;;;;;;5047118;28;20040;-85
2022/08/01 04:31:15;;;;;;;21.65;10.93;;;17.80;99.90;;;;;;5049907;28;20492;-85
2022/08/01 04:33:45;;;;;;;21.88;10.32;;;17.80;99.90;;;;;;5049784;28;20048;-86
2022/08/01 04:36:14;;;;;;;18.77;11.13;;;17.80;99.90;;;;;;5042275;28;20486;-86
2022/08/01 04:38:42;;;;;;;22.33;10.80;;;17.80;99.90;;;;;;5040072;28;20060;-86
2022/08/01 04:41:10;;;;;;;23.52;11.15;;;17.80;99.90;;;;;;5046111;28;20040;-85
2022/08/01 04:43:37;;;;;;;19.48;10.18;;;17.90;99.90;;;;;;5051051;28;20025;-86
2022/08/01 04:46:03;;;;;;;21.38;10.95;;;17.90;99.90;;;;;;5047207;28;20045;-86
2022/08/01 04:48:31;;;;;;;22.40;11.18;;;18.00;99.90;;;;;;5050787;28;20021;-86
2022/08/01 04:50:56;;;;;;;25.60;11.80;;;18.00;99.90;;;;;;5051864;28;20047;-86
2022/08/01 04:53:22;;;;;;;20.63;10.63;;;18.00;99.90;;;;;;5049267;28;20017;-86
2022/08/01 04:55:48;;;;;;;21.48;10.88;;;18.10;99.90;;;;;;5046252;28;20516;-85
2022/08/01 04:58:15;;;;;;;17.40;10.85;;;18.10;99.90;;;;;;5050410;28;20064;-86
2022/08/01 05:00:40;;;;;;;23.90;11.65;;;18.10;99.90;;;;;;5062700;28;20040;-86
2022/08/01 05:03:06;;;;;;;21.05;10.98;;;18.20;99.90;;;;;;5043436;28;20388;-87
2022/08/01 05:05:32;;;;;;;17.23;11.20;;;18.20;99.90;;;;;;5046502;28;20031;-87
2022/08/01 05:08:00;;;;;;;20.10;11.82;;;18.30;99.90;;;;;;5044992;28;20051;-87
2022/08/01 05:10:27;;;;;;;16.30;10.52;;;18.30;99.90;;;;;;5042915;28;20017;-87
2022/08/01 05:12:55;;;;;;;17.90;10.63;;;18.40;99.90;;;;;;5042900;28;20032;-86
2022/08/01 05:15:21;;;;;;;19.15;10.77;;;18.40;99.90;;;;;;5046133;28;20554;-86
2022/08/01 05:17:46;;;;;;;16.10;10.05;;;18.50;99.90;;;;;;5048893;28;20033;-85
2022/08/01 05:20:12;;;;;;;19.77;10.55;;;18.50;99.90;;;;;;5046651;28;20052;-87
2022/08/01 05:22:38;;;;;;;17.27;11.23;;;18.60;99.90;;;;;;5048289;28;20358;-85
2022/08/01 05:25:04;;;;;;;16.00;10.30;;;18.60;99.90;;;;;;5045873;28;20025;-85
2022/08/01 05:27:31;;;;;;;18.70;11.52;;;18.70;99.90;;;;;;5050157;28;20029;-85
2022/08/01 05:29:57;;;;;;;19.58;12.13;;;18.70;99.90;;;;;;5047118;28;20021;-85
2022/08/01 05:32:22;;;;;;;17.40;11.80;;;18.80;99.90;;;;;;5042805;28;20496;-85
2022/08/01 05:34:48;;;;;;;18.70;11.75;;;18.90;99.90;;;;;;5048045;28;20393;-85
2022/08/01 05:37:13;;;;;;;18.45;12.05;;;19.00;99.90;;;;;;5047422;28;20032;-85
2022/08/01 05:39:39;;;;;;;19.08;11.88;;;19.00;99.90;;;;;;5047962;28;20037;-85
2022/08/01 05:42:04;;;;;;;19.10;11.73;;;19.00;99.90;;;;;;5043703;28;20063;-85
2022/08/01 05:44:30;;;;;;;18.17;11.70;;;19.10;99.90;;;;;;5047714;28;20079;-85
2022/08/01 05:46:56;;;;;;;18.25;12.80;;;19.20;99.90;;;;;;5044222;28;20029;-85
2022/08/01 05:49:21;;;;;;;17.80;11.85;;;19.20;99.90;;;;;;5047429;28;20140;-85
2022/08/01 05:51:47;;;;;;;17.90;13.10;;;19.20;99.90;;;;;;5041359;28;20033;-84
2022/08/01 05:54:13;;;;;;;16.67;11.55;;;19.30;99.90;;;;;;5047731;28;20028;-86
2022/08/01 05:56:38;;;;;;;17.23;12.50;;;19.30;99.90;;;;;;5045059;28;20447;-86
2022/08/01 05:59:04;;;;;;;20.67;12.93;;;19.30;99.90;;;;;;5045076;28;20132;-86
2022/08/01 06:01:30;;;;;;;17.88;12.23;;;19.30;99.90;;;;;;5047844;28;20119;-86
2022/08/01 06:03:55;;;;;;;17.23;12.18;;;19.40;99.90;;;;;;5041476;28;20051;-86
2022/08/01 06:06:21;;;;;;;17.40;11.95;;;19.40;99.90;;;;;;5042200;28;20392;-86
2022/08/01 06:08:47;;;;;;;16.83;11.88;;;19.50;99.90;;;;;;5041693;28;20503;-87
2022/08/01 06:11:12;;;;;;;17.83;11.55;;;19.50;99.90;;;;;;5040748;28;20025;-86
2022/08/01 06:13:38;;;;;;;16.20;11.02;;;19.60;99.90;;;;;;5043186;28;20035;-87
2022/08/01 06:16:04;;;;;;;17.10;11.82;;;19.60;99.90;;;;;;5041551;28;20116;-87
2022/08/01 06:18:29;;;;;;;15.38;10.95;;;19.70;99.90;;;;;;5045857;28;20038;-87
2022/08/01 06:20:55;;;;;;;14.93;10.38;;;19.70;99.90;;;;;;5044402;28;20037;-88
2022/08/01 06:23:21;;;;;;;15.65;9.52;;;19.70;99.90;;;;;;5045733;28;20021;-88
2022/08/01 06:25:47;;;;;;;15.48;10.98;;;19.70;99.90;;;;;;5060002;28;20391;-87
2022/08/01 06:28:13;;;;;;;14.60;9.52;;;19.80;99.90;;;;;;5047595;28;20025;-89
2022/08/01 06:30:38;;;;;;;13.80;9.80;;;19.80;99.90;;;;;;5046502;28;20041;-90
2022/08/01 06:33:04;;;;;;;11.35;8.50;;;19.80;99.90;;;;;;5045594;28;20388;-90
2022/08/01 06:35:30;;;;;;;14.52;9.30;;;19.80;99.90;;;;;;5049095;28;20079;-91
2022/08/01 06:37:57;;;;;;;12.00;8.05;;;19.80;99.90;;;;;;5039643;28;20026;-89
2022/08/01 06:40:23;;;;;;;9.13;7.13;;;19.90;99.90;;;;;;5041215;28;20448;-89
2022/08/01 06:42:48;;;;;;;8.05;6.72;;;19.90;99.90;;;;;;5041648;28;20025;-89
2022/08/01 06:45:14;;;;;;;9.35;7.60;;;19.80;99.90;;;;;;5041365;28;20395;-89
2022/08/01 06:47:41;;;;;;;11.48;6.50;;;19.80;99.90;;;;;;5048326;28;20099;-89
2022/08/01 06:50:08;;;;;;;8.20;4.85;;;19.80;99.90;;;;;;5050785;28;20064;-87
2022/08/01 06:52:35;;;;;;;5.20;3.55;;;19.70;99.90;;;;;;5047340;28;20025;-88
2022/08/01 06:55:01;;;;;;;4.15;2.25;;;19.70;99.90;;;;;;5048577;28;20051;-86
2022/08/01 06:57:26;;;;;;;2.58;1.70;;;19.70;99.90;;;;;;5051051;28;20029;-85
2022/08/01 06:59:53;;;;;;;2.88;1.65;;;19.70;99.90;;;;;;5050730;28;20049;-87
2022/08/01 07:02:19;;;;;;;3.47;1.10;;;19.70;99.90;;;;;;5045298;28;20033;-88
2022/08/01 07:04:45;;;;;;;1.90;1.00;;;19.70;99.90;;;;;;5048164;28;20085;-87
2022/08/01 07:07:10;;;;;;;2.17;0.80;;;19.80;99.90;;;;;;5047092;28;20024;-86
2022/08/01 07:09:36;;;;;;;1.98;0.90;;;19.80;99.90;;;;;;5034223;28;20029;-86
2022/08/01 07:12:03;;;;;;;3.70;0.60;;;19.90;99.90;;;;;;5049815;28;20029;-86
2022/08/01 07:14:28;;;;;;;1.90;0.52;;;20.00;99.90;;;;;;5054002;28;20040;-87
2022/08/01 07:16:54;;;;;;;3.15;0.50;;;20.10;99.90;;;;;;5054662;28;20392;-86
2022/08/01 07:19:19;;;;;;;1.13;0.40;;;20.30;99.90;;;;;;5051587;28;20370;-86
2022/08/01 07:21:45;;;;;;;1.38;0.50;;;20.30;99.90;;;;;;5053752;28;20099;-93
2022/08/01 07:24:12;;;;;;;1.17;0.40;;;20.40;99.90;;;;;;5049706;28;20032;-86
2022/08/01 07:26:39;;;;;;;1.20;0.40;;;20.60;99.90;;;;;;5050088;28;20025;-86
2022/08/01 07:29:04;;;;;;;1.80;0.70;;;20.80;99.90;;;;;;5048857;28;20017;-85
2022/08/01 07:31:30;;;;;;;1.45;0.47;;;21.10;99.90;;;;;;5052458;28;20035;-83
2022/08/01 07:33:56;;;;;;;1.17;0.40;;;21.20;99.90;;;;;;5053340;28;20025;-83
2022/08/01 07:36:21;;;;;;;2.55;0.35;;;21.20;99.90;;;;;;5042650;28;20021;-83
2022/08/01 07:38:47;;;;;;;1.45;0.50;;;21.30;99.90;;;;;;5043896;28;20504;-83
2022/08/01 07:41:13;;;;;;;2.22;0.40;;;21.40;99.90;;;;;;5052928;28;20370;-84
2022/08/01 07:43:39;;;;;;;0.80;0.50;;;21.40;99.90;;;;;;5053311;28;20072;-85
2022/08/01 07:46:05;;;;;;;1.63;0.40;;;21.30;99.90;;;;;;5049208;28;20091;-86
2022/08/01 07:48:31;;;;;;;3.17;0.50;;;21.30;99.90;;;;;;5049311;28;20029;-85
2022/08/01 07:50:56;;;;;;;1.30;0.40;;;21.30;99.90;;;;;;5049273;28;20029;-85
2022/08/01 07:53:22;;;;;;;1.33;0.38;;;21.30;99.90;;;;;;5056609;28;20391;-86
2022/08/01 07:55:48;;;;;;;0.50;0.30;;;21.20;99.90;;;;;;5050747;28;20025;-86
2022/08/01 07:58:14;;;;;;;1.10;0.40;;;21.30;99.90;;;;;;5045843;28;20033;-87
2022/08/01 08:00:40;;;;;;;1.38;0.32;;;21.20;99.90;;;;;;5047507;28;20498;-86
2022/08/01 08:03:06;;;;;;;1.23;0.40;;;21.20;99.90;;;;;;5054395;28;20021;-87
2022/08/01 08:05:35;;;;;;;2.10;0.40;;;21.20;99.90;;;;;;5053776;28;20025;-86
2022/08/01 08:08:08;;;;;;;1.52;0.40;;;21.30;99.90;;;;;;5052901;28;20136;-86
2022/08/01 08:10:34;;;;;;;1.13;0.40;;;21.30;99.90;;;;;;5040685;28;20033;-87
2022/08/01 08:13:01;;;;;;;1.33;0.40;;;21.30;99.90;;;;;;5054103;28;20036;-87
2022/08/01 08:15:27;;;;;;;2.63;0.52;;;21.30;99.90;;;;;;5051593;28;20498;-87
2022/08/01 08:17:52;;;;;;;1.00;0.40;;;21.40;99.90;;;;;;5042476;28;20029;-88
2022/08/01 08:20:18;;;;;;;1.48;0.40;;;21.50;99.90;;;;;;5055891;28;20037;-87
2022/08/01 08:22:43;;;;;;;1.92;0.50;;;21.60;99.90;;;;;;5045304;28;20021;-87
2022/08/01 08:25:09;;;;;;;1.88;0.38;;;21.60;99.90;;;;;;5049598;28;20029;-88
2022/08/01 08:27:38;;;;;;;1.75;0.40;;;21.50;99.90;;;;;;5054303;28;20039;-87
2022/08/01 08:30:07;;;;;;;1.25;0.40;;;21.60;99.90;;;;;;5053228;28;20033;-87
2022/08/01 08:32:33;;;;;;;1.38;0.40;;;21.80;99.90;;;;;;5052657;28;20375;-88
2022/08/01 08:34:59;;;;;;;1.13;0.40;;;22.00;99.90;;;;;;5041565;28;20078;-87
2022/08/01 08:37:25;;;;;;;1.50;0.38;;;22.00;99.90;;;;;;5056166;28;20112;-87
2022/08/01 08:39:50;;;;;;;1.83;0.40;;;22.10;99.90;;;;;;5055239;28;20032;-87
2022/08/01 08:42:16;;;;;;;2.08;0.35;;;22.10;99.90;;;;;;5055033;28;20123;-88
2022/08/01 08:44:42;;;;;;;1.35;0.32;;;22.10;99.90;;;;;;5050633;28;20040;-88
2022/08/01 08:47:10;;;;;;;1.17;0.40;;;22.20;99.90;;;;;;5041393;28;20048;-89
2022/08/01 08:49:36;;;;;;;1.42;0.40;;;22.20;99.90;;;;;;5049926;28;20025;-88
2022/08/01 08:52:03;;;;;;;0.90;0.40;;;22.20;99.90;;;;;;5051230;28;20393;-87
2022/08/01 08:54:31;;;;;;;1.52;0.30;;;22.40;99.90;;;;;;5053673;28;20040;-87
2022/08/01 08:56:58;;;;;;;3.20;0.50;;;22.40;99.90;;;;;;5053567;28;20025;-87
2022/08/01 08:59:24;;;;;;;1.55;0.40;;;22.30;99.90;;;;;;5052636;28;20029;-88
2022/08/01 09:01:50;;;;;;;1.50;0.40;;;22.30;99.90;;;;;;5053443;28;20029;-88
2022/08/01 09:04:17;;;;;;;1.58;0.40;;;22.30;99.90;;;;;;5051624;28;20140;-87
2022/08/01 09:06:43;;;;;;;1.60;0.40;;;22.30;99.90;;;;;;5047879;28;20029;-87
2022/08/01 09:09:09;;;;;;;0.60;0.28;;;22.40;99.90;;;;;;5052618;28;20029;-87
2022/08/01 09:11:36;;;;;;;1.73;0.50;;;22.50;99.90;;;;;;5046619;28;20091;-87
2022/08/01 09:14:26;;;;;;;0.57;0.22;;;22.50;99.90;;;;;;5033537;28;20037;-87
2022/08/01 09:17:08;;;;;;;1.60;0.40;;;22.50;99.90;;;;;;5041524;28;20082;-87
2022/08/01 09:19:40;;;;;;;1.10;0.30;;;22.40;99.90;;;;;;5051075;28;20080;-88
2022/08/01 09:22:08;;;;;;;2.10;0.50;;;22.40;99.90;;;;;;5052407;28;20036;-88
2022/08/01 09:24:34;;;;;;;1.90;0.40;;;22.30;99.90;;;;;;5046365;28;20044;-87
2022/08/01 09:27:01;;;;;;;1.60;0.45;;;22.30;99.90;;;;;;5051454;28;20033;-87
2022/08/01 09:29:29;;;;;;;1.10;0.40;;;22.40;99.90;;;;;;5047303;28;20024;-87
2022/08/01 09:31:56;;;;;;;0.85;0.40;;;22.60;99.90;;;;;;5045495;28;20656;-88
2022/08/01 09:34:30;;;;;;;1.65;0.30;;;22.80;99.90;;;;;;5055047;28;20017;-87
2022/08/01 09:36:58;;;;;;;0.82;0.30;;;22.90;99.90;;;;;;5051614;28;20032;-88
2022/08/01 09:39:31;;;;;;;0.38;0.20;;;22.90;99.90;;;;;;5048776;28;20465;-87
2022/08/01 09:41:59;;;;;;;0.90;0.30;;;23.00;99.90;;;;;;5048404;28;20025;-87
2022/08/01 09:44:39;;;;;;;1.02;0.30;;;23.00;99.90;;;;;;5051286;28;20503;-88
2022/08/01 09:47:05;;;;;;;0.80;0.30;;;23.20;99.90;;;;;;5039728;28;20481;-87
2022/08/01 09:49:41;;;;;;;1.88;0.30;;;23.30;99.90;;;;;;5050458;28;20083;-87
2022/08/01 09:52:21;;;;;;;0.85;0.30;;;23.30;99.90;;;;;;5053777;28;20088;-88
2022/08/01 09:55:01;;;;;;;0.75;0.30;;;23.30;99.90;;;;;;5054487;28;20373;-87
2022/08/01 09:57:28;;;;;;;2.53;0.40;;;23.30;99.90;;;;;;5052395;28;20028;-88
2022/08/01 09:59:56;;;;;;;1.40;0.30;;;23.30;99.90;;;;;;5042912;28;20084;-88
2022/08/01 10:02:32;;;;;;;2.30;0.38;;;23.40;99.90;;;;;;5044285;28;20085;-88
2022/08/01 10:04:58;;;;;;;0.32;0.20;;;23.40;99.90;;;;;;5041883;28;20548;-87
2022/08/01 10:07:24;;;;;;;2.28;0.20;;;23.30;99.90;;;;;;5048165;28;20537;-88
2022/08/01 10:09:49;;;;;;;0.43;0.13;;;23.20;99.90;;;;;;5051412;28;20097;-87
2022/08/01 10:12:20;;;;;;;1.17;0.20;;;23.10;99.90;;;;;;5051879;28;20029;-87
2022/08/01 10:14:49;;;;;;;2.58;0.20;;;23.10;99.90;;;;;;5050617;28;20021;-89
2022/08/01 10:17:16;;;;;;;1.05;0.30;;;23.10;99.90;;;;;;5034600;28;20025;-87
2022/08/01 10:19:43;;;;;;;1.92;0.30;;;22.70;99.90;;;;;;5051681;28;20116;-87
2022/08/01 10:22:10;;;;;;;2.13;0.55;;;22.40;99.90;;;;;;5051246;28;20032;-87
2022/08/01 10:24:39;;;;;;;0.88;0.40;;;22.20;99.90;;;;;;5044603;28;20032;-88
2022/08/01 10:27:08;;;;;;;1.13;0.40;;;21.90;99.90;;;;;;5043666;28;20049;-87
2022/08/01 10:29:45;;;;;;;2.10;0.50;;;21.60;99.90;;;;;;5046844;28;20067;-86
2022/08/01 10:32:11;;;;;;;3.67;0.50;;;21.40;99.90;;;;;;5040864;28;20052;-87
2022/08/01 10:34:37;;;;;;;3.28;0.57;;;21.30;99.90;;;;;;5054257;28;20029;-86
2022/08/01 10:37:05;;;;;;;3.33;0.57;;;21.30;99.90;;;;;;5054017;28;20480;-86
2022/08/01 10:39:32;;;;;;;6.10;1.02;;;21.20;99.90;;;;;;5053480;28;20033;-86
2022/08/01 10:41:59;;;;;;;3.28;0.77;;;21.10;99.90;;;;;;5052821;28;20120;-86
2022/08/01 10:44:25;;;;;;;4.13;0.93;;;21.00;99.90;;;;;;5053201;28;20028;-86
2022/08/01 10:46:57;;;;;;;4.85;1.23;;;20.90;99.90;;;;;;5053749;28;20420;-86
2022/08/01 10:49:28;;;;;;;1.75;0.73;;;21.00;99.90;;;;;;5040158;28;20546;-87
2022/08/01 10:51:54;;;;;;;3.78;0.80;;;21.10;99.90;;;;;;5050976;28;20041;-87
2022/08/01 10:54:25;;;;;;;4.47;0.77;;;21.30;99.90;;;;;;5051623;28;20024;-86
2022/08/01 10:56:52;;;;;;;4.70;1.15;;;21.40;99.90;;;;;;5051501;28;20116;-86
2022/08/01 10:59:29;;;;;;;8.18;1.15;;;21.50;99.90;;;;;;5043404;28;20067;-86
2022/08/01 11:02:02;;;;;;;4.63;0.80;;;21.70;99.90;;;;;;5046902;28;20069;-85
2022/08/01 11:04:44;;;;;;;4.30;0.88;;;22.00;99.90;;;;;;5051620;28;20055;-86
2022/08/01 11:07:43;;;;;;;3.15;1.00;;;22.20;99.90;;;;;;5052870;28;20112;-86
2022/08/01 11:10:39;;;;;;;7.93;1.08;;;22.30;99.90;;;;;;5046008;28;20400;-86
2022/08/01 11:13:07;;;;;;;4.55;0.77;;;22.40;99.90;;;;;;5025320;28;20398;-85
2022/08/01 11:15:34;;;;;;;4.18;0.88;;;22.50;99.90;;;;;;5031465;28;20025;-85
2022/08/01 11:18:02;;;;;;;3.47;1.20;;;22.60;99.90;;;;;;5033398;28;20064;-86
2022/08/01 11:20:33;;;;;;;3.92;1.08;;;22.60;99.90;;;;;;5051429;28;20037;-86
2022/08/01 11:23:05;;;;;;;3.95;0.70;;;22.60;99.90;;;;;;5049269;28;20014;-86
2022/08/01 11:25:36;;;;;;;3.10;0.70;;;22.80;99.90;;;;;;5048144;28;20048;-86
2022/08/01 11:28:17;;;;;;;5.82;0.95;;;23.10;99.90;;;;;;5048239;28;20049;-87
2022/08/01 11:30:47;;;;;;;3.63;1.00;;;23.20;99.90;;;;;;5047583;28;20075;-87
2022/08/01 11:33:15;;;;;;;3.53;1.08;;;23.30;99.90;;;;;;5051345;28;20438;-86
2022/08/01 11:36:11;;;;;;;3.42;0.82;;;23.30;99.90;;;;;;5050340;28;20025;-87
2022/08/01 11:38:42;;;;;;;3.67;0.70;;;23.30;99.90;;;;;;5050848;28;20025;-85
2022/08/01 11:41:19;;;;;;;1.88;0.80;;;23.30;99.90;;;;;;5052402;28;20068;-86
2022/08/01 11:44:08;;;;;;;4.80;1.10;;;23.40;99.90;;;;;;5051776;28;20083;-86
2022/08/01 11:46:55;;;;;;;2.42;1.00;;;23.30;99.90;;;;;;5050422;28;20053;-86
2022/08/01 11:49:31;;;;;;;4.68;0.90;;;23.30;99.90;;;;;;5050484;28;20025;-86
2022/08/01 11:52:03;;;;;;;4.28;1.25;;;23.40;99.90;;;;;;5050746;28;20114;-86
2022/08/01 11:54:31;;;;;;;3.33;0.57;;;23.40;99.90;;;;;;5051176;28;20021;-86
2022/08/01 11:57:00;;;;;;;3.53;0.77;;;23.50;99.90;;;;;;5050908;28;20025;-86
2022/08/01 11:59:26;;;;;;;3.78;0.90;;;23.50;99.90;;;;;;5052246;28;20021;-86
2022/08/01 12:01:51;;;;;;;3.15;0.70;;;23.50;99.90;;;;;;5048010;28;20040;-86
2022/08/01 12:04:17;;;;;;;3.40;1.25;;;23.40;99.90;;;;;;5034681;28;20022;-85
2022/08/01 12:06:44;;;;;;;4.05;0.70;;;23.50;99.90;;;;;;5034101;28;20099;-86
2022/08/01 12:09:20;;;;;;;5.00;1.35;;;23.40;99.90;;;;;;5038468;28;20021;-86
2022/08/01 12:11:47;;;;;;;4.22;0.60;;;23.40;99.90;;;;;;5054565;28;20029;-85
2022/08/01 12:14:17;;;;;;;3.70;1.35;;;23.30;99.90;;;;;;5054495;28;20468;-86
2022/08/01 12:16:51;;;;;;;4.00;1.02;;;23.10;99.90;;;;;;5053827;28;20035;-86
2022/08/01 12:19:19;;;;;;;5.72;0.70;;;23.00;99.90;;;;;;5054193;28;20024;-86
2022/08/01 12:21:45;;;;;;;6.07;1.10;;;23.00;99.90;;;;;;5054226;28;20033;-86
2022/08/01 12:24:10;;;;;;;5.22;0.88;;;23.00;99.90;;;;;;5054427;28;20025;-86
2022/08/01 12:26:42;;;;;;;5.32;0.88;;;23.00;99.90;;;;;;5049946;28;20031;-86
2022/08/01 12:29:07;;;;;;;5.40;0.70;;;22.90;99.90;;;;;;5054060;28;20036;-86
2022/08/01 12:31:34;;;;;;;5.85;0.80;;;23.00;99.90;;;;;;5050583;28;20029;-86
2022/08/01 12:34:29;;;;;;;5.57;0.80;;;22.90;99.90;;;;;;5034898;28;20116;-86
2022/08/01 12:36:58;;;;;;;5.45;0.80;;;23.00;99.90;;;;;;5033840;28;20029;-86
2022/08/01 12:39:31;;;;;;;6.85;1.00;;;23.10;99.90;;;;;;5033901;28;20036;-86
2022/08/01 12:41:56;;;;;;;4.93;0.75;;;23.40;99.90;;;;;;5043812;28;20032;-86
2022/08/01 12:44:22;;;;;;;4.63;0.85;;;23.60;99.90;;;;;;5053417;28;20416;-86
2022/08/01 12:46:48;;;;;;;3.78;0.73;;;23.80;99.90;;;;;;5053334;28;20072;-86